Time;durP1;ratioP1;P1;durP2;ratioP2;P2;SDS_P1;SDS_P2;PMS_P1;PMS_P2;Temp;Humidity;BMP_temperature;BMP_pressure;BME280_temperature;BME280_humidity;BME280_pressure;Samples;Min_cycle;Max_cycle;Signal;HPM_P1;HPM_P2
2023/03/04 00:01:24;;;;;;;50.40;22.10;;;;;;;0.93;79.23;99979.80;130900;1256;106372;-76
2023/03/04 00:04:30;;;;;;;42.10;21.50;;;;;;;0.96;79.32;99977.68;130873;1254;106757;-75
2023/03/04 00:07:35;;;;;;;40.50;19.00;;;;;;;0.99;79.34;99969.38;130847;1266;107592;-74
2023/03/04 00:10:41;;;;;;;41.60;19.80;;;;;;;0.98;79.33;99969.45;130880;1256;107451;-75
2023/03/04 00:13:47;;;;;;;40.50;20.90;;;;;;;1.04;79.51;99970.48;130874;1266;107527;-73
2023/03/04 00:16:52;;;;;;;38.70;20.90;;;;;;;1.06;79.26;99968.28;130854;1254;107548;-74
2023/03/04 00:19:58;;;;;;;41.50;19.90;;;;;;;1.05;79.36;99967.85;130866;1267;106372;-75
2023/03/04 00:23:04;;;;;;;44.90;20.80;;;;;;;1.05;79.52;99962.05;130898;1256;107549;-75
2023/03/04 00:26:09;;;;;;;41.40;20.80;;;;;;;1.07;79.40;99964.69;130942;1251;107502;-76
2023/03/04 00:29:16;;;;;;;45.90;20.90;;;;;;;1.04;79.52;99967.72;130950;1257;107527;-75
2023/03/04 00:32:22;;;;;;;44.20;20.90;;;;;;;0.92;79.50;99962.34;131066;1251;107780;-74
2023/03/04 00:35:28;;;;;;;39.20;19.50;;;;;;;0.88;79.56;99958.61;131058;1253;106760;-72
2023/03/04 00:38:34;;;;;;;38.40;18.10;;;;;;;0.85;79.91;99957.05;131109;1256;107506;-75
2023/03/04 00:41:41;;;;;;;41.40;20.10;;;;;;;0.89;79.98;99957.12;130903;1267;107632;-75
2023/03/04 00:44:48;;;;;;;38.30;19.50;;;;;;;0.90;79.92;99954.91;130938;1256;107519;-75
2023/03/04 00:47:54;;;;;;;40.50;19.80;;;;;;;0.94;79.99;99955.39;130839;1256;107520;-73
2023/03/04 00:50:59;;;;;;;36.70;19.50;;;;;;;0.97;79.80;99948.17;130891;1261;107258;-75
2023/03/04 00:54:05;;;;;;;45.60;20.50;;;;;;;0.93;80.05;99941.44;130978;1251;107392;-74
2023/03/04 00:57:11;;;;;;;38.70;18.40;;;;;;;0.83;80.39;99938.77;131007;1256;107653;-73
2023/03/04 01:00:18;;;;;;;45.40;20.00;;;;;;;0.71;80.61;99931.64;130953;1267;107235;-75
2023/03/04 01:03:25;;;;;;;40.20;18.80;;;;;;;0.67;80.67;99924.75;130941;1252;106698;-74
2023/03/04 01:06:31;;;;;;;36.20;17.30;;;;;;;0.72;80.87;99927.89;131025;1256;107548;-74
2023/03/04 01:09:37;;;;;;;37.30;18.60;;;;;;;0.71;81.18;99915.17;131010;1251;107378;-74
2023/03/04 01:12:43;;;;;;;37.30;18.00;;;;;;;0.73;80.84;99907.36;130961;1257;107484;-75
2023/03/04 01:15:49;;;;;;;35.80;17.80;;;;;;;0.70;81.05;99898.94;130941;1256;107469;-75
2023/03/04 01:18:54;;;;;;;33.30;17.00;;;;;;;0.69;80.80;99895.73;130780;1267;107540;-74
2023/03/04 01:22:00;;;;;;;32.80;16.40;;;;;;;0.69;80.65;99877.70;130890;1256;107547;-75
2023/03/04 01:25:06;;;;;;;33.30;16.40;;;;;;;0.71;80.53;99875.80;130668;1257;107555;-75
2023/03/04 01:28:12;;;;;;;36.70;17.10;;;;;;;0.75;80.63;99878.13;130879;1257;107225;-75
2023/03/04 01:31:20;;;;;;;29.90;15.50;;;;;;;0.82;80.49;99874.06;130874;1257;108689;-74
2023/03/04 01:34:25;;;;;;;29.80;15.80;;;;;;;0.86;80.81;99869.44;130880;1257;107576;-75
2023/03/04 01:37:31;;;;;;;32.00;16.50;;;;;;;0.87;80.97;99866.69;130859;1258;106582;-75
2023/03/04 01:40:37;;;;;;;33.40;16.30;;;;;;;0.87;80.60;99864.09;130672;1257;107386;-74
2023/03/04 01:43:44;;;;;;;29.20;15.30;;;;;;;0.91;80.76;99858.40;130841;1257;107152;-75
2023/03/04 01:46:52;;;;;;;30.40;15.10;;;;;;;0.95;80.74;99854.80;130900;1260;108751;-75
2023/03/04 01:50:01;;;;;;;31.10;16.40;;;;;;;0.94;80.77;99841.02;130612;1254;107239;-76
2023/03/04 01:53:07;;;;;;;38.40;18.00;;;;;;;0.94;80.95;99838.42;130859;1251;107455;-75
2023/03/04 01:56:19;;;;;;;35.30;16.10;;;;;;;0.94;81.00;99832.59;131014;1258;107517;-75
2023/03/04 01:59:27;;;;;;;29.50;14.10;;;;;;;0.98;81.00;99823.78;131001;1251;107246;-73
2023/03/04 02:02:32;;;;;;;29.80;15.30;;;;;;;1.06;81.00;99806.94;130693;1251;107355;-75
2023/03/04 02:05:41;;;;;;;32.70;16.70;;;;;;;1.10;81.07;99792.15;130776;1257;105598;-75
2023/03/04 02:08:47;;;;;;;26.30;14.20;;;;;;;1.12;80.93;99776.56;130976;1256;107462;-74
2023/03/04 02:11:54;;;;;;;30.30;15.20;;;;;;;1.16;81.06;99763.86;130874;1254;107534;-75
2023/03/04 02:15:00;;;;;;;27.70;15.10;;;;;;;1.19;80.94;99756.68;130955;1252;107597;-74
2023/03/04 02:18:13;;;;;;;33.70;16.10;;;;;;;1.20;80.81;99749.59;130936;1263;107857;-73
2023/03/04 02:21:23;;;;;;;32.90;15.50;;;;;;;1.18;80.80;99748.29;130723;1259;107557;-74
2023/03/04 02:24:35;;;;;;;30.80;16.20;;;;;;;1.18;80.94;99737.97;130956;1251;108636;-74
2023/03/04 02:27:41;;;;;;;25.30;13.00;;;;;;;1.23;80.96;99727.16;130688;1256;108617;-74
2023/03/04 02:30:47;;;;;;;27.10;14.90;;;;;;;1.31;80.77;99704.66;130909;1251;106446;-74
2023/03/04 02:33:57;;;;;;;25.50;14.30;;;;;;;1.38;80.62;99705.73;130910;1256;107487;-75
2023/03/04 02:37:04;;;;;;;27.60;14.20;;;;;;;1.41;80.62;99697.50;130813;1256;107649;-74
2023/03/04 02:40:16;;;;;;;25.40;14.30;;;;;;;1.44;80.53;99687.09;131132;1256;107599;-74
2023/03/04 02:43:22;;;;;;;27.50;15.00;;;;;;;1.47;80.58;99690.73;130956;1256;106713;-73
2023/03/04 02:46:28;;;;;;;25.50;14.20;;;;;;;1.46;80.32;99681.05;130764;1257;107626;-75
2023/03/04 02:49:35;;;;;;;23.20;13.30;;;;;;;1.46;80.43;99674.16;130913;1253;107572;-75
2023/03/04 02:52:41;;;;;;;31.50;15.60;;;;;;;1.44;80.30;99663.96;130897;1257;107542;-74
2023/03/04 02:55:47;;;;;;;26.20;13.70;;;;;;;1.45;80.30;99662.16;130759;1259;108625;-75
2023/03/04 02:58:53;;;;;;;22.60;12.60;;;;;;;1.48;80.33;99649.52;130988;1251;107522;-73
2023/03/04 03:01:59;;;;;;;26.30;13.80;;;;;;;1.53;80.38;99638.10;130879;1256;108760;-75
2023/03/04 03:05:06;;;;;;;24.60;13.00;;;;;;;1.60;80.28;99633.18;130939;1256;107596;-75
2023/03/04 03:08:12;;;;;;;22.60;12.90;;;;;;;1.65;80.09;99630.09;130950;1267;107569;-76
2023/03/04 03:11:18;;;;;;;25.70;14.30;;;;;;;1.64;80.02;99646.06;131014;1256;107497;-75
2023/03/04 03:14:24;;;;;;;27.20;13.50;;;;;;;1.62;79.86;99657.42;130918;1257;106551;-74
2023/03/04 03:17:31;;;;;;;23.20;13.40;;;;;;;1.63;79.97;99658.60;130962;1267;107527;-74
2023/03/04 03:20:37;;;;;;;23.30;13.60;;;;;;;1.60;79.83;99664.63;130850;1259;107401;-73
2023/03/04 03:23:43;;;;;;;23.80;13.60;;;;;;;1.53;79.72;99675.55;131073;1256;106901;-74
2023/03/04 03:26:48;;;;;;;24.80;13.70;;;;;;;1.48;79.69;99675.80;131014;1256;107525;-74
2023/03/04 03:29:54;;;;;;;27.10;13.80;;;;;;;1.48;79.77;99678.44;130987;1255;107568;-74
2023/03/04 03:33:00;;;;;;;21.40;11.60;;;;;;;1.48;79.79;99682.84;130937;1256;108712;-74
2023/03/04 03:36:07;;;;;;;25.60;13.80;;;;;;;1.51;79.71;99678.55;130956;1256;107540;-75
2023/03/04 03:39:14;;;;;;;24.10;13.20;;;;;;;1.55;79.73;99678.92;130935;1251;108759;-75
2023/03/04 03:42:20;;;;;;;23.50;13.20;;;;;;;1.58;79.49;99678.05;131010;1257;107469;-73
2023/03/04 03:45:25;;;;;;;24.90;13.60;;;;;;;1.46;79.28;99675.77;130974;1256;107497;-75
2023/03/04 03:48:31;;;;;;;23.90;12.90;;;;;;;1.35;79.60;99671.48;130933;1251;107456;-74
2023/03/04 03:51:37;;;;;;;23.00;12.80;;;;;;;1.36;79.91;99673.80;130918;1255;107506;-75
2023/03/04 03:54:42;;;;;;;26.00;13.40;;;;;;;1.35;79.79;99670.75;131084;1256;107555;-75
2023/03/04 03:57:48;;;;;;;23.40;12.00;;;;;;;1.35;79.82;99668.15;131090;1251;107535;-74
2023/03/04 04:00:53;;;;;;;19.80;11.70;;;;;;;1.41;79.80;99674.71;131066;1255;107531;-75
2023/03/04 04:03:59;;;;;;;22.60;12.70;;;;;;;1.43;79.70;99669.48;130929;1255;107519;-75
2023/03/04 04:07:05;;;;;;;23.80;14.30;;;;;;;1.48;79.76;99663.66;130994;1251;107654;-75
2023/03/04 04:10:12;;;;;;;23.60;13.30;;;;;;;1.52;79.82;99665.17;131119;1251;107594;-75
2023/03/04 04:13:18;;;;;;;45.40;22.90;;;;;;;1.53;79.66;99659.83;130934;1256;107380;-75
2023/03/04 04:16:24;;;;;;;29.80;15.60;;;;;;;1.55;79.73;99665.83;130884;1253;107559;-76
2023/03/04 04:19:29;;;;;;;29.70;15.00;;;;;;;1.50;79.55;99665.80;130992;1256;107443;-73
2023/03/04 04:22:35;;;;;;;65.30;25.60;;;;;;;1.45;79.63;99665.46;130898;1256;109024;-74
2023/03/04 04:25:41;;;;;;;75.90;24.60;;;;;;;1.44;79.72;99664.52;131144;1251;108130;-75
2023/03/04 04:28:46;;;;;;;66.10;21.90;;;;;;;1.49;79.77;99662.91;131064;1256;107508;-75
2023/03/04 04:31:52;;;;;;;26.50;14.10;;;;;;;1.57;79.65;99663.92;130910;1256;107551;-73
2023/03/04 04:34:58;;;;;;;54.40;29.60;;;;;;;1.61;79.42;99665.26;130963;1256;107560;-74
2023/03/04 04:38:03;;;;;;;28.60;16.20;;;;;;;1.63;79.53;99656.36;130841;1255;107796;-75
2023/03/04 04:41:18;;;;;;;87.40;42.30;;;;;;;1.62;79.31;99655.90;130945;1251;108401;-74
2023/03/04 04:44:24;;;;;;;32.80;17.40;;;;;;;1.61;79.38;99653.66;130978;1256;106129;-74
2023/03/04 04:47:29;;;;;;;394.80;177.70;;;;;;;1.61;79.33;99650.15;130966;1251;108733;-73
2023/03/04 04:50:35;;;;;;;51.20;25.30;;;;;;;1.62;79.45;99651.98;130811;1256;107557;-73
2023/03/04 04:53:41;;;;;;;31.50;15.10;;;;;;;1.60;79.00;99651.81;130838;1255;107513;-74
2023/03/04 04:56:46;;;;;;;36.40;21.90;;;;;;;1.52;79.33;99650.41;130926;1256;107494;-74
2023/03/04 04:59:53;;;;;;;23.60;13.30;;;;;;;1.50;79.14;99650.94;130945;1251;108112;-73
2023/03/04 05:02:58;;;;;;;23.60;14.10;;;;;;;1.54;79.25;99649.61;130856;1253;107464;-75
2023/03/04 05:06:06;;;;;;;296.90;71.10;;;;;;;1.58;79.26;99647.36;130917;1253;107603;-73
2023/03/04 05:09:12;;;;;;;74.60;24.80;;;;;;;1.63;79.20;99644.95;131026;1256;106668;-75
2023/03/04 05:12:17;;;;;;;188.50;50.90;;;;;;;1.63;79.13;99644.04;130921;1251;107462;-74
2023/03/04 05:15:23;;;;;;;83.80;29.40;;;;;;;1.63;79.23;99636.50;130892;1254;105470;-75
2023/03/04 05:18:29;;;;;;;263.70;75.40;;;;;;;1.62;79.25;99636.79;130965;1256;107530;-72
2023/03/04 05:21:35;;;;;;;59.80;23.80;;;;;;;1.60;79.05;99634.63;130968;1251;107618;-77
2023/03/04 05:24:41;;;;;;;502.80;164.20;;;;;;;1.60;79.19;99639.56;130838;1254;107445;-76
2023/03/04 05:27:46;;;;;;;73.50;26.70;;;;;;;1.60;79.05;99636.04;130899;1255;107414;-74
2023/03/04 05:30:52;;;;;;;233.90;62.40;;;;;;;1.60;78.99;99645.50;130862;1255;107482;-74
2023/03/04 05:33:58;;;;;;;816.40;255.20;;;;;;;1.62;78.95;99637.47;130808;1255;107470;-75
2023/03/04 05:37:04;;;;;;;135.50;38.80;;;;;;;1.69;78.97;99639.23;130899;1254;107413;-74
2023/03/04 05:40:12;;;;;;;654.50;179.50;;;;;;;1.70;78.99;99642.16;130983;1253;107292;-74
2023/03/04 05:43:18;;;;;;;661.40;210.40;;;;;;;1.74;78.97;99639.52;130981;1253;106277;-75
2023/03/04 05:46:24;;;;;;;399.20;112.00;;;;;;;1.78;78.94;99642.94;130868;1252;107221;-74
2023/03/04 05:49:30;;;;;;;294.40;94.70;;;;;;;1.77;78.67;99645.13;130819;1256;107451;-75
2023/03/04 05:52:35;;;;;;;262.70;120.00;;;;;;;1.70;78.59;99647.88;130874;1255;107460;-75
2023/03/04 05:55:46;;;;;;;54.10;27.50;;;;;;;1.69;78.83;99647.25;131031;1253;107411;-72
2023/03/04 05:58:51;;;;;;;45.10;27.80;;;;;;;1.69;78.76;99641.67;130982;1255;107291;-74
2023/03/04 06:01:57;;;;;;;29.20;16.20;;;;;;;1.68;78.88;99641.60;130970;1256;107194;-75
2023/03/04 06:05:03;;;;;;;22.50;12.60;;;;;;;1.70;78.84;99635.61;130960;1256;107562;-72
2023/03/04 06:08:09;;;;;;;26.70;13.50;;;;;;;1.78;78.89;99632.10;130919;1251;107553;-74
2023/03/04 06:11:15;;;;;;;33.20;16.30;;;;;;;1.82;78.71;99630.58;130909;1251;108494;-74
2023/03/04 06:14:21;;;;;;;38.70;23.80;;;;;;;1.86;78.62;99629.19;130952;1255;108693;-74
2023/03/04 06:17:27;;;;;;;44.60;27.30;;;;;;;1.89;78.66;99623.01;130918;1251;107553;-74
2023/03/04 06:20:33;;;;;;;31.70;18.80;;;;;;;1.90;78.47;99623.62;130993;1255;108630;-76
2023/03/04 06:23:38;;;;;;;440.60;199.40;;;;;;;1.88;78.32;99619.24;130963;1262;107529;-75
2023/03/04 06:26:44;;;;;;;298.50;101.20;;;;;;;1.89;78.43;99617.73;131208;1256;107544;-73
2023/03/04 06:29:50;;;;;;;38.40;18.10;;;;;;;1.85;78.19;99618.02;131080;1256;107443;-75
2023/03/04 06:32:55;;;;;;;641.70;215.30;;;;;;;1.79;78.38;99623.27;131085;1256;107366;-74
2023/03/04 06:36:01;;;;;;;330.40;92.20;;;;;;;1.85;78.67;99624.73;131121;1253;107440;-73
2023/03/04 06:39:08;;;;;;;596.60;185.70;;;;;;;1.90;78.40;99623.48;131135;1255;107558;-74
2023/03/04 06:42:14;;;;;;;228.50;61.40;;;;;;;1.96;78.19;99626.52;131188;1253;108663;-73
2023/03/04 06:45:20;;;;;;;444.10;136.30;;;;;;;1.97;78.06;99626.64;131097;1256;107527;-74
2023/03/04 06:48:26;;;;;;;440.50;141.20;;;;;;;1.96;78.48;99621.27;131229;1255;107538;-73
2023/03/04 06:51:31;;;;;;;700.10;219.40;;;;;;;1.97;77.88;99618.23;131012;1251;107379;-74
2023/03/04 06:54:37;;;;;;;689.60;230.90;;;;;;;1.95;78.05;99616.30;131168;1254;107582;-75
2023/03/04 06:57:43;;;;;;;357.20;100.90;;;;;;;1.96;78.25;99623.89;131046;1251;107579;-74
2023/03/04 07:00:48;;;;;;;403.30;146.20;;;;;;;1.93;78.15;99623.93;130996;1254;107745;-74
2023/03/04 07:03:55;;;;;;;379.20;130.30;;;;;;;1.96;78.21;99625.88;131133;1251;107485;-72
2023/03/04 07:07:01;;;;;;;105.70;40.80;;;;;;;2.00;78.16;99634.69;131215;1256;107589;-74
2023/03/04 07:10:09;;;;;;;465.40;206.60;;;;;;;2.02;77.87;99631.20;131066;1251;107567;-72
2023/03/04 07:13:15;;;;;;;79.90;36.80;;;;;;;2.08;77.95;99619.14;131034;1253;107696;-74
2023/03/04 07:16:22;;;;;;;176.10;85.70;;;;;;;2.14;77.82;99616.98;131118;1251;107434;-74
2023/03/04 07:19:28;;;;;;;77.10;40.20;;;;;;;2.18;77.93;99619.51;131121;1256;107732;-72
2023/03/04 07:22:34;;;;;;;42.70;21.00;;;;;;;2.22;77.75;99625.17;131056;1256;107707;-73
2023/03/04 07:25:39;;;;;;;48.10;24.50;;;;;;;2.23;77.62;99619.63;130893;1251;107575;-72
2023/03/04 07:28:45;;;;;;;29.40;16.70;;;;;;;2.19;77.31;99617.82;130928;1256;107747;-74
2023/03/04 07:31:51;;;;;;;29.30;15.30;;;;;;;2.15;77.51;99611.26;130978;1256;107688;-74
2023/03/04 07:34:57;;;;;;;52.00;25.40;;;;;;;2.13;77.56;99610.02;130991;1251;107509;-73
2023/03/04 07:38:03;;;;;;;31.50;15.10;;;;;;;2.15;77.58;99604.45;130908;1255;107523;-75
2023/03/04 07:41:09;;;;;;;24.30;13.40;;;;;;;2.14;77.42;99598.05;130914;1254;107536;-76
2023/03/04 07:44:14;;;;;;;275.20;92.80;;;;;;;2.15;77.52;99600.39;131013;1255;106653;-76
2023/03/04 07:47:20;;;;;;;177.80;53.90;;;;;;;2.25;77.59;99598.61;130911;1255;107575;-78
2023/03/04 07:50:26;;;;;;;102.60;37.20;;;;;;;2.30;77.02;99596.59;130976;1256;105731;-77
2023/03/04 07:53:31;;;;;;;69.70;28.90;;;;;;;2.31;76.87;99593.05;130967;1251;107513;-78
2023/03/04 07:56:37;;;;;;;179.30;65.00;;;;;;;2.33;77.16;99587.45;130997;1251;107346;-76
2023/03/04 07:59:43;;;;;;;110.80;49.70;;;;;;;2.35;77.06;99586.60;131045;1256;107725;-76
2023/03/04 08:02:48;;;;;;;91.70;45.80;;;;;;;2.36;76.73;99587.57;131084;1256;107576;-78
2023/03/04 08:05:54;;;;;;;113.20;52.60;;;;;;;2.33;76.95;99583.27;130954;1253;108634;-76
2023/03/04 08:09:02;;;;;;;47.10;21.00;;;;;;;2.34;76.99;99585.66;131034;1267;108714;-75
2023/03/04 08:12:08;;;;;;;22.20;12.50;;;;;;;2.33;77.18;99586.03;131103;1251;106796;-78
2023/03/04 08:15:14;;;;;;;23.30;13.00;;;;;;;2.34;77.03;99588.59;130942;1255;107563;-78
2023/03/04 08:18:20;;;;;;;21.10;11.00;;;;;;;2.40;76.99;99582.08;131135;1255;108647;-75
2023/03/04 08:21:27;;;;;;;28.80;14.60;;;;;;;2.46;77.15;99581.72;131120;1253;106548;-76
2023/03/04 08:24:33;;;;;;;25.00;12.90;;;;;;;2.51;76.74;99576.05;131024;1256;108648;-78
2023/03/04 08:27:38;;;;;;;30.20;15.20;;;;;;;2.55;76.59;99575.62;131032;1256;107400;-77
2023/03/04 08:30:44;;;;;;;24.90;13.50;;;;;;;2.60;76.64;99582.62;130970;1255;107541;-77
2023/03/04 08:33:51;;;;;;;27.00;15.00;;;;;;;2.60;76.27;99582.09;131230;1253;107521;-77
2023/03/04 08:36:57;;;;;;;24.30;14.70;;;;;;;2.57;76.54;99579.36;131206;1255;107456;-77
2023/03/04 08:40:03;;;;;;;26.40;15.40;;;;;;;2.55;76.64;99573.11;131585;1266;108688;-78
2023/03/04 08:43:09;;;;;;;29.60;19.60;;;;;;;2.58;76.78;99565.93;131164;1256;107420;-78
2023/03/04 08:46:14;;;;;;;29.50;16.40;;;;;;;2.60;76.78;99570.70;131184;1256;107665;-77
2023/03/04 08:49:20;;;;;;;36.20;22.30;;;;;;;2.62;76.72;99566.98;131041;1253;107634;-82
2023/03/04 08:52:26;;;;;;;45.00;22.20;;;;;;;2.64;76.68;99564.56;131275;1256;107548;-82
2023/03/04 08:55:32;;;;;;;27.10;14.60;;;;;;;2.61;76.49;99558.98;131205;1256;107354;-81
2023/03/04 08:58:38;;;;;;;25.10;16.10;;;;;;;2.65;76.39;99563.27;131115;1253;107477;-76
2023/03/04 09:01:44;;;;;;;29.10;17.40;;;;;;;2.70;76.55;99563.34;131158;1269;107302;-79
2023/03/04 09:04:49;;;;;;;28.70;15.60;;;;;;;2.81;76.59;99564.29;131032;1256;107538;-78
2023/03/04 09:07:55;;;;;;;28.80;15.80;;;;;;;2.91;76.85;99558.92;130973;1256;107452;-82
2023/03/04 09:11:01;;;;;;;31.30;19.70;;;;;;;2.99;76.15;99556.19;131152;1253;107383;-78
2023/03/04 09:14:07;;;;;;;27.20;16.80;;;;;;;3.01;76.53;99552.33;131183;1253;106243;-81
2023/03/04 09:17:13;;;;;;;43.50;27.90;;;;;;;3.04;76.32;99549.62;131057;1253;107534;-79
2023/03/04 09:20:19;;;;;;;30.60;18.10;;;;;;;3.05;76.30;99549.38;130972;1253;106429;-81
2023/03/04 09:23:25;;;;;;;25.80;14.50;;;;;;;3.08;76.08;99547.72;130873;1255;107491;-80
2023/03/04 09:26:31;;;;;;;20.50;12.10;;;;;;;3.06;76.36;99544.39;131160;1251;106742;-80
2023/03/04 09:29:37;;;;;;;21.20;12.40;;;;;;;3.10;76.35;99543.56;130962;1256;107473;-81
2023/03/04 09:32:43;;;;;;;59.20;28.60;;;;;;;3.17;76.41;99541.45;131035;1257;106338;-78
2023/03/04 09:35:48;;;;;;;23.60;10.90;;;;;;;3.23;76.34;99536.51;130979;1256;107503;-79
2023/03/04 09:38:54;;;;;;;20.00;10.10;;;;;;;3.31;76.19;99533.05;130862;1254;107550;-83
2023/03/04 09:42:02;;;;;;;25.90;13.30;;;;;;;3.42;76.01;99526.92;131102;1256;107524;-82
2023/03/04 09:45:13;;;;;;;22.40;11.40;;;;;;;3.59;76.17;99517.40;131105;1255;107570;-84
2023/03/04 09:48:24;;;;;;;21.50;10.60;;;;;;;3.76;76.02;99506.19;131128;1253;107550;-81
2023/03/04 09:51:46;;;;;;;17.60;10.00;;;;;;;3.79;74.84;99501.89;131155;1253;107584;-82
2023/03/04 09:55:02;;;;;;;20.00;12.30;;;;;;;3.76;74.85;99499.00;131088;1256;106865;-81
2023/03/04 09:58:20;;;;;;;17.80;10.50;;;;;;;3.74;75.42;99494.89;131073;1256;106665;-81
2023/03/04 10:01:31;;;;;;;22.20;11.50;;;;;;;3.77;75.72;99493.08;130941;1256;108208;-78
2023/03/04 10:04:40;;;;;;;20.60;11.50;;;;;;;3.84;75.65;99491.95;130942;1253;107228;-81
2023/03/04 10:07:49;;;;;;;21.50;11.30;;;;;;;3.85;75.52;99489.91;131052;1256;106743;-82
2023/03/04 10:10:57;;;;;;;21.90;11.70;;;;;;;3.91;75.56;99490.95;130907;1253;107571;-82
2023/03/04 10:14:23;;;;;;;18.10;10.60;;;;;;;3.90;75.02;99487.44;130959;1256;109295;-81
2023/03/04 10:17:37;;;;;;;31.70;16.90;;;;;;;3.79;74.94;99489.39;131075;1255;107538;-81
2023/03/04 10:20:53;;;;;;;36.90;14.10;;;;;;;3.67;74.84;99484.20;131020;1256;107248;-79
2023/03/04 10:24:05;;;;;;;23.50;11.00;;;;;;;3.68;75.36;99481.89;131037;1256;107230;-80
2023/03/04 10:27:17;;;;;;;17.50;9.50;;;;;;;3.71;75.44;99474.90;131074;1256;107495;-80
2023/03/04 10:30:37;;;;;;;19.70;10.80;;;;;;;3.78;75.20;99475.91;130989;1256;107532;-81
2023/03/04 10:33:43;;;;;;;20.50;11.40;;;;;;;3.85;75.34;99475.70;131038;1256;108154;-79
2023/03/04 10:36:56;;;;;;;20.90;11.20;;;;;;;3.87;75.11;99472.66;130914;1253;107250;-79
2023/03/04 10:40:02;;;;;;;17.10;9.70;;;;;;;3.89;75.31;99465.81;131156;1256;107663;-78
2023/03/04 10:43:15;;;;;;;60.50;30.60;;;;;;;3.94;75.09;99459.46;131089;1251;106668;-78
2023/03/04 10:46:22;;;;;;;42.40;19.80;;;;;;;3.99;75.16;99452.50;131149;1256;105941;-78
2023/03/04 10:49:31;;;;;;;78.90;35.10;;;;;;;4.02;74.61;99438.72;131027;1256;107254;-80
2023/03/04 10:52:41;;;;;;;101.70;48.80;;;;;;;4.06;74.97;99437.13;131097;1253;106463;-77
2023/03/04 10:55:47;;;;;;;30.90;16.10;;;;;;;4.13;74.56;99437.75;131066;1256;107559;-76
2023/03/04 10:58:53;;;;;;;67.00;33.30;;;;;;;4.16;74.92;99433.26;131129;1256;107629;-79
2023/03/04 11:01:59;;;;;;;29.40;14.60;;;;;;;4.18;74.33;99440.88;131124;1256;107556;-77
2023/03/04 11:05:19;;;;;;;32.20;15.30;;;;;;;4.11;74.40;99437.91;130956;1256;107555;-79
2023/03/04 11:08:24;;;;;;;31.40;14.20;;;;;;;4.08;74.50;99431.98;131120;1256;108643;-79
2023/03/04 11:11:37;;;;;;;34.60;16.50;;;;;;;4.19;74.63;99434.63;131102;1255;107367;-80
2023/03/04 11:14:48;;;;;;;86.50;38.70;;;;;;;4.30;74.75;99433.15;131114;1255;108231;-77
2023/03/04 11:17:57;;;;;;;24.10;12.40;;;;;;;4.44;74.25;99430.73;131135;1256;107637;-77
2023/03/04 11:21:03;;;;;;;38.70;20.30;;;;;;;4.42;74.15;99428.94;131099;1260;107232;-79
2023/03/04 11:24:14;;;;;;;48.80;25.30;;;;;;;4.47;74.46;99420.58;131128;1256;107534;-78
2023/03/04 11:27:24;;;;;;;56.70;28.70;;;;;;;4.54;74.15;99425.95;131151;1256;107527;-77
2023/03/04 11:30:36;;;;;;;34.00;16.90;;;;;;;4.54;74.31;99423.80;131104;1253;107576;-78
2023/03/04 11:33:49;;;;;;;66.00;27.50;;;;;;;4.54;74.41;99419.41;131155;1257;107259;-78
2023/03/04 11:36:59;;;;;;;156.30;70.10;;;;;;;4.60;74.37;99417.10;131124;1256;107272;-77
2023/03/04 11:40:10;;;;;;;108.80;47.40;;;;;;;4.62;74.28;99414.45;131251;1253;108550;-75
2023/03/04 11:43:20;;;;;;;71.60;37.20;;;;;;;4.61;74.25;99408.75;131161;1256;107633;-77
2023/03/04 11:46:52;;;;;;;41.80;23.30;;;;;;;4.58;74.08;99408.38;131187;1266;107555;-78
2023/03/04 11:50:27;;;;;;;74.30;36.60;;;;;;;4.55;74.41;99407.34;131191;1253;109333;-77
2023/03/04 11:53:42;;;;;;;38.60;20.90;;;;;;;4.61;74.44;99401.84;131294;1256;107526;-77
2023/03/04 11:56:51;;;;;;;246.80;56.30;;;;;;;4.69;74.14;99401.00;131220;1256;108699;-77
2023/03/04 12:00:16;;;;;;;376.40;86.30;;;;;;;4.71;74.14;99392.04;131175;1254;107559;-77
2023/03/04 12:03:40;;;;;;;202.00;50.90;;;;;;;4.70;74.29;99391.54;131117;1253;107766;-76
2023/03/04 12:06:58;;;;;;;684.80;214.00;;;;;;;4.72;74.39;99380.27;131142;1255;107581;-77
2023/03/04 12:10:14;;;;;;;312.80;91.00;;;;;;;4.76;74.45;99379.11;131102;1258;106055;-76
2023/03/04 12:13:48;;;;;;;212.50;73.60;;;;;;;4.75;74.41;99375.16;131082;1255;107577;-81
2023/03/04 12:17:12;;;;;;;416.30;138.60;;;;;;;4.64;74.20;99371.29;131230;1256;108107;-75
2023/03/04 12:20:44;;;;;;;159.60;46.50;;;;;;;4.60;74.59;99367.47;131212;1265;107152;-78
2023/03/04 12:24:23;;;;;;;412.40;102.50;;;;;;;4.57;74.71;99364.04;131229;1255;106446;-77
2023/03/04 12:27:37;;;;;;;727.30;211.20;;;;;;;4.56;74.90;99366.74;131254;1257;107378;-78
2023/03/04 12:30:59;;;;;;;557.70;151.30;;;;;;;4.58;74.95;99363.58;131160;1256;107482;-79
2023/03/04 12:34:27;;;;;;;702.20;257.50;;;;;;;4.61;74.75;99355.27;131187;1256;107350;-78
2023/03/04 12:37:49;;;;;;;337.00;104.70;;;;;;;4.67;75.01;99352.87;131169;1251;107583;-78
2023/03/04 12:41:04;;;;;;;385.60;145.80;;;;;;;4.84;74.97;99348.71;131070;1255;106837;-75
2023/03/04 12:44:18;;;;;;;212.30;73.00;;;;;;;5.04;74.95;99347.79;131104;1253;106528;-77
2023/03/04 12:47:36;;;;;;;311.30;92.90;;;;;;;5.12;74.30;99342.99;130935;1253;107573;-75
2023/03/04 12:50:53;;;;;;;294.10;85.80;;;;;;;5.10;74.27;99346.77;130968;1256;107550;-83
2023/03/04 12:54:11;;;;;;;349.20;100.40;;;;;;;5.02;74.16;99345.35;130936;1251;107357;-79
2023/03/04 12:57:21;;;;;;;68.00;21.70;;;;;;;4.97;74.49;99340.73;131073;1253;108680;-81
2023/03/04 13:00:41;;;;;;;503.70;148.30;;;;;;;4.87;74.35;99340.06;130916;1253;107731;-75
2023/03/04 13:03:58;;;;;;;409.10;100.30;;;;;;;4.76;74.65;99339.80;130894;1256;108684;-79
2023/03/04 13:07:12;;;;;;;289.40;72.20;;;;;;;4.67;74.69;99336.88;130929;1256;107362;-78
2023/03/04 13:10:20;;;;;;;165.00;43.60;;;;;;;4.62;74.83;99335.93;130948;1256;107377;-78
2023/03/04 13:14:00;;;;;;;822.40;249.40;;;;;;;4.57;75.07;99327.89;130927;1253;109321;-79
2023/03/04 13:17:39;;;;;;;792.40;242.00;;;;;;;4.57;75.19;99331.29;131114;1255;107556;-81
2023/03/04 13:20:45;;;;;;;416.10;98.20;;;;;;;4.64;75.38;99322.50;131333;1255;107520;-80
2023/03/04 13:23:51;;;;;;;219.20;60.80;;;;;;;4.66;75.18;99320.21;131192;1256;107553;-79
2023/03/04 13:26:56;;;;;;;858.40;235.00;;;;;;;4.68;75.42;99323.91;131403;1254;107241;-81
2023/03/04 13:30:03;;;;;;;193.80;48.00;;;;;;;4.70;75.87;99327.29;131378;1256;107949;-81
2023/03/04 13:33:39;;;;;;;110.80;13.40;;;;;;;4.56;76.77;99337.70;131609;1256;107469;-77
2023/03/04 13:37:02;;;;;;;10.20;4.80;;;;;;;3.82;78.90;99399.04;131182;1255;107553;-77
2023/03/04 13:40:35;;;;;;;23.00;11.10;;;;;;;2.89;80.99;99403.05;131372;1256;108602;-78
2023/03/04 13:43:39;;;;;;;;;;;;;;;2.32;83.06;99408.35;131016;1251;107263;-78
2023/03/04 13:46:45;;;;;;;33.30;16.80;;;;;;;2.08;83.11;99409.84;131111;1256;107683;-76
2023/03/04 13:50:11;;;;;;;20.20;9.20;;;;;;;1.89;84.50;99413.26;131027;1255;108689;-77
2023/03/04 13:53:44;;;;;;;24.40;11.50;;;;;;;1.81;83.89;99407.62;131507;1255;107551;-76
2023/03/04 13:57:10;;;;;;;23.00;11.50;;;;;;;1.79;83.77;99397.59;130858;1256;108582;-78
2023/03/04 14:00:18;;;;;;;10.50;5.20;;;;;;;1.87;84.15;99399.05;130853;1256;107438;-78
2023/03/04 14:03:27;;;;;;;20.60;12.00;;;;;;;1.89;83.98;99392.36;130967;1256;105894;-78
2023/03/04 14:06:33;;;;;;;12.20;8.20;;;;;;;1.94;84.43;99393.03;130843;1254;107572;-79
2023/03/04 14:09:38;;;;;;;18.40;13.10;;;;;;;2.05;83.23;99392.07;131176;1255;107570;-79
2023/03/04 14:12:47;;;;;;;22.50;17.10;;;;;;;2.27;83.01;99388.59;130838;1254;107259;-79
2023/03/04 14:16:01;;;;;;;22.90;18.60;;;;;;;2.44;82.81;99393.38;130882;1266;108131;-77